createdAt,value
2023-05-22T00:00:25.537Z,101840.19
2023-05-22T00:02:32.925Z,101833.13
2023-05-22T00:04:42.614Z,101831.41
2023-05-22T00:06:49.380Z,101832.28
2023-05-22T00:09:00.385Z,101828.75
2023-05-22T00:11:06.568Z,101827.06
2023-05-22T00:13:11.950Z,101834.13
2023-05-22T00:15:18.028Z,101828.88
2023-05-22T00:17:27.932Z,101823.59
2023-05-22T00:19:34.118Z,101824.44
2023-05-22T00:21:41.866Z,101822.78
2023-05-22T00:23:48.981Z,101826.22
2023-05-22T00:25:57.386Z,101819.28
2023-05-22T00:28:02.519Z,101821.81
2023-05-22T00:30:10.620Z,101815.59
2023-05-22T00:32:15.695Z,101813.97
2023-05-22T00:34:31.898Z,101817.50
2023-05-22T00:36:40.313Z,101805.25
2023-05-22T00:38:51.026Z,101813.25
2023-05-22T00:41:05.716Z,101821.06
2023-05-22T00:43:11.336Z,101815.81
2023-05-22T00:45:17.812Z,101809.66
2023-05-22T00:47:25.551Z,101809.91
2023-05-22T00:49:34.163Z,101820.34
2023-05-22T00:51:41.894Z,101818.41
2023-05-22T00:53:58.124Z,101809.53
2023-05-22T00:56:05.510Z,101817.44
2023-05-22T00:58:21.095Z,101809.53
2023-05-22T01:00:29.922Z,101803.53
2023-05-22T01:02:37.943Z,101802.63
2023-05-22T01:04:50.410Z,101806.06
2023-05-22T01:06:59.457Z,101801.66
2023-05-22T01:09:08.255Z,101793.75
2023-05-22T01:11:18.215Z,101794.72
2023-05-22T01:13:32.986Z,101785.88
2023-05-22T01:15:47.233Z,101779.00
2023-05-22T01:18:06.382Z,101789.47
2023-05-22T01:20:27.996Z,101797.13
2023-05-22T01:22:53.103Z,101785.97
2023-05-22T01:25:27.833Z,101780.81
2023-05-22T01:27:53.961Z,101787.91
2023-05-22T01:30:15.970Z,101785.25
2023-05-22T01:32:29.320Z,101770.41
2023-05-22T01:34:39.581Z,101759.81
2023-05-22T01:36:48.005Z,101765.81
2023-05-22T01:39:01.189Z,101770.34
2023-05-22T01:41:07.699Z,101763.34
2023-05-22T01:43:22.222Z,101765.16
2023-05-22T01:45:27.618Z,101762.44
2023-05-22T01:47:35.973Z,101748.38
2023-05-22T01:49:41.405Z,101738.66
2023-05-22T01:51:55.694Z,101735.16
2023-05-22T01:54:06.625Z,101742.22
2023-05-22T01:56:19.938Z,101729.94
2023-05-22T01:58:31.820Z,101730.88
2023-05-22T02:00:38.615Z,101736.94
2023-05-22T02:02:51.442Z,101737.75
2023-05-22T02:05:05.936Z,101727.19
2023-05-22T02:07:23.942Z,101725.56
2023-05-22T02:09:33.453Z,101718.66
2023-05-22T02:11:41.029Z,101719.41
2023-05-22T02:13:50.582Z,101728.22
2023-05-22T02:15:56.106Z,101724.66
2023-05-22T02:18:13.176Z,101725.63
2023-05-22T02:20:25.036Z,101724.63
2023-05-22T02:22:31.545Z,101711.38
2023-05-22T02:24:38.112Z,101714.94
2023-05-22T02:26:43.274Z,101723.69
2023-05-22T02:28:48.632Z,101721.03
2023-05-22T02:30:58.317Z,101718.53
2023-05-22T02:33:09.613Z,101707.16
2023-05-22T02:35:15.019Z,101708.88
2023-05-22T02:37:20.933Z,101708.00
2023-05-22T02:39:28.122Z,101711.50
2023-05-22T02:41:34.407Z,101709.78
2023-05-22T02:43:43.655Z,101712.41
2023-05-22T02:45:48.730Z,101711.59
2023-05-22T02:47:57.190Z,101718.53
2023-05-22T02:50:04.721Z,101719.41
2023-05-22T02:52:10.169Z,101715.03
2023-05-22T02:54:16.482Z,101719.47
2023-05-22T02:56:30.955Z,101709.91
2023-05-22T02:58:38.685Z,101709.94
2023-05-22T03:00:46.259Z,101713.53
2023-05-22T03:02:51.727Z,101707.44
2023-05-22T03:04:59.250Z,101715.34
2023-05-22T03:07:09.945Z,101711.91
2023-05-22T03:09:19.666Z,101717.97
2023-05-22T03:11:30.481Z,101727.41
2023-05-22T03:13:35.993Z,101729.09
2023-05-22T03:15:41.756Z,101740.38
2023-05-22T03:17:47.027Z,101734.16
2023-05-22T03:19:53.272Z,101715.88
2023-05-22T03:21:58.508Z,101728.13
2023-05-22T03:24:06.411Z,101735.09
2023-05-22T03:26:11.945Z,101731.56
2023-05-22T03:28:20.475Z,101722.03
2023-05-22T03:30:27.763Z,101709.19
2023-05-22T03:32:38.493Z,101715.81
2023-05-22T03:34:47.200Z,101713.06
2023-05-22T03:36:52.242Z,101707.03
2023-05-22T03:38:59.031Z,101714.84
2023-05-22T03:41:09.519Z,101715.66
2023-05-22T03:43:14.559Z,101720.72
2023-05-22T03:45:22.313Z,101719.94
2023-05-22T03:47:27.525Z,101714.56
2023-05-22T03:49:33.605Z,101714.41
2023-05-22T03:51:46.092Z,101711.69
2023-05-22T03:53:51.748Z,101710.69
2023-05-22T03:55:58.231Z,101710.69
2023-05-22T03:58:09.911Z,101707.09
2023-05-22T04:00:20.078Z,101710.53
2023-05-22T04:02:35.814Z,101714.91
2023-05-22T04:04:46.834Z,101719.09
2023-05-22T04:06:54.615Z,101708.59
2023-05-22T04:09:00.560Z,101712.97
2023-05-22T04:11:06.111Z,101713.06
2023-05-22T04:13:13.678Z,101705.09
2023-05-22T04:15:29.088Z,101718.28
2023-05-22T04:17:37.923Z,101711.19
2023-05-22T04:19:58.161Z,101719.06
2023-05-22T04:22:03.368Z,101718.16
2023-05-22T04:24:11.510Z,101713.59
2023-05-22T04:26:21.160Z,101711.78
2023-05-22T04:28:30.594Z,101713.56
2023-05-22T04:30:40.756Z,101715.09
2023-05-22T04:32:48.360Z,101723.97
2023-05-22T04:34:58.728Z,101725.63
2023-05-22T04:37:03.859Z,101721.09
2023-05-22T04:39:11.746Z,101723.69
2023-05-22T04:41:22.580Z,101729.81
2023-05-22T04:43:37.210Z,101722.69
2023-05-22T04:45:42.616Z,101724.69
2023-05-22T04:47:47.748Z,101723.72
2023-05-22T04:49:56.460Z,101726.97
2023-05-22T04:52:07.434Z,101723.59
2023-05-22T04:54:13.974Z,101731.22
2023-05-22T04:56:31.778Z,101729.19
2023-05-22T04:58:50.125Z,101727.16
2023-05-22T05:00:58.478Z,101720.09
2023-05-22T05:03:03.756Z,101725.38
2023-05-22T05:05:10.015Z,101725.28
2023-05-22T05:07:20.321Z,101730.63
2023-05-22T05:09:25.275Z,101730.50
2023-05-22T05:11:35.320Z,101724.94
2023-05-22T05:13:43.237Z,101721.59
2023-05-22T05:15:54.688Z,101735.34
2023-05-22T05:18:02.173Z,101737.47
2023-05-22T05:20:11.104Z,101737.94
2023-05-22T05:22:19.156Z,101738.19
2023-05-22T05:24:27.714Z,101740.50
2023-05-22T05:26:34.946Z,101745.63
2023-05-22T05:28:43.004Z,101737.91
2023-05-22T05:30:51.772Z,101750.66
2023-05-22T05:32:59.831Z,101744.31
2023-05-22T05:35:07.929Z,101744.53
2023-05-22T05:37:13.077Z,101746.06
2023-05-22T05:39:19.703Z,101743.47
2023-05-22T05:41:30.518Z,101741.56
2023-05-22T05:43:40.481Z,101750.53
2023-05-22T05:45:53.880Z,101740.53
2023-05-22T05:47:58.910Z,101743.88
2023-05-22T05:50:06.586Z,101750.25
2023-05-22T05:52:15.055Z,101764.31
2023-05-22T05:54:22.212Z,101766.00
2023-05-22T05:56:29.093Z,101761.25
2023-05-22T05:58:35.645Z,101764.47
2023-05-22T06:00:51.855Z,101760.25
2023-05-22T06:03:02.527Z,101759.84
2023-05-22T06:05:10.186Z,101757.75
2023-05-22T06:07:19.344Z,101760.03
2023-05-22T06:09:28.718Z,101760.34
2023-05-22T06:11:34.278Z,101769.34
2023-05-22T06:13:39.703Z,101769.16
2023-05-22T06:15:45.314Z,101772.09
2023-05-22T06:17:51.389Z,101775.94
2023-05-22T06:20:00.538Z,101778.56
2023-05-22T06:22:05.621Z,101774.31
2023-05-22T06:24:11.308Z,101785.91
2023-05-22T06:26:18.188Z,101777.09
2023-05-22T06:28:29.139Z,101767.97
2023-05-22T06:30:40.149Z,101770.03
2023-05-22T06:32:47.003Z,101786.03
2023-05-22T06:34:52.850Z,101778.84
2023-05-22T06:37:01.557Z,101795.25
2023-05-22T06:39:08.843Z,101794.16
2023-05-22T06:41:14.426Z,101785.44
2023-05-22T06:43:24.534Z,101785.19
2023-05-22T06:45:31.771Z,101788.34
2023-05-22T06:47:40.247Z,101788.50
2023-05-22T06:49:45.619Z,101795.44
2023-05-22T06:52:11.442Z,101787.84
2023-05-22T06:54:24.211Z,101788.81
2023-05-22T06:56:32.438Z,101789.00
2023-05-22T06:58:39.903Z,101788.72
2023-05-22T07:00:45.440Z,101785.72
2023-05-22T07:03:02.693Z,101792.34
2023-05-22T07:05:09.433Z,101789.53
2023-05-22T07:07:14.922Z,101787.22
2023-05-22T07:09:25.442Z,101789.97
2023-05-22T07:11:33.130Z,101787.09
2023-05-22T07:13:39.181Z,101787.19
2023-05-22T07:15:46.553Z,101790.16
2023-05-22T07:17:53.073Z,101789.56
2023-05-22T07:19:58.056Z,101790.22
2023-05-22T07:22:05.284Z,101790.19
2023-05-22T07:24:13.260Z,101788.66
2023-05-22T07:26:27.949Z,101792.31
2023-05-22T07:28:39.110Z,101786.28
2023-05-22T07:30:52.006Z,101795.44
2023-05-22T07:33:00.014Z,101794.66
2023-05-22T07:35:05.275Z,101795.53
2023-05-22T07:37:17.153Z,101795.19
2023-05-22T07:39:24.591Z,101794.13
2023-05-22T07:41:35.093Z,101799.28
2023-05-22T07:43:41.233Z,101797.00
2023-05-22T07:45:50.806Z,101815.31
2023-05-22T07:47:56.599Z,101802.66
2023-05-22T07:50:04.537Z,101807.00
2023-05-22T07:52:10.613Z,101804.53
2023-05-22T07:54:19.446Z,101803.78
2023-05-22T07:56:26.196Z,101795.97
2023-05-22T07:58:34.888Z,101785.59
2023-05-22T08:00:40.065Z,101792.38
2023-05-22T08:02:45.698Z,101802.66
2023-05-22T08:04:51.935Z,101800.94
2023-05-22T08:06:58.190Z,101797.63
2023-05-22T08:09:03.635Z,101793.28
2023-05-22T08:11:09.011Z,101794.78
2023-05-22T08:13:15.903Z,101794.06
2023-05-22T08:15:26.344Z,101800.06
2023-05-22T08:17:31.331Z,101795.53
2023-05-22T08:19:36.860Z,101794.59
2023-05-22T08:21:42.000Z,101785.06
2023-05-22T08:23:46.946Z,101790.25
2023-05-22T08:25:52.767Z,101794.59
2023-05-22T08:27:57.816Z,101786.66
2023-05-22T08:30:04.027Z,101787.53
2023-05-22T08:32:11.820Z,101787.16
2023-05-22T08:34:17.617Z,101786.13
2023-05-22T08:36:23.557Z,101779.47
2023-05-22T08:38:28.680Z,101776.41
2023-05-22T08:40:39.696Z,101777.31
2023-05-22T08:42:45.862Z,101776.69
2023-05-22T08:44:51.950Z,101765.66
2023-05-22T08:47:00.052Z,101767.47
2023-05-22T08:49:09.716Z,101770.84
2023-05-22T08:51:21.550Z,101772.91
2023-05-22T08:53:31.118Z,101763.19
2023-05-22T08:55:39.972Z,101762.44
2023-05-22T08:57:47.023Z,101760.72
2023-05-22T08:59:56.067Z,101774.22
2023-05-22T09:02:01.988Z,101774.28
2023-05-22T09:04:10.804Z,101767.91
2023-05-22T09:06:20.116Z,101765.81
2023-05-22T09:08:28.822Z,101766.97
2023-05-22T09:10:35.566Z,101771.31
2023-05-22T09:13:00.804Z,101771.94
2023-05-22T09:15:13.993Z,101772.63
2023-05-22T09:17:21.173Z,101769.25
2023-05-22T09:19:28.866Z,101768.03
2023-05-22T09:21:35.645Z,101778.78
2023-05-22T09:23:43.984Z,101769.47
2023-05-22T09:25:50.928Z,101773.19
2023-05-22T09:27:56.806Z,101779.28
2023-05-22T09:30:02.513Z,101772.56
2023-05-22T09:32:20.331Z,101766.66
2023-05-22T09:34:34.069Z,101772.78
2023-05-22T09:36:40.424Z,101774.84
2023-05-22T09:38:45.380Z,101771.47
2023-05-22T09:40:53.007Z,101765.34
2023-05-22T09:42:58.313Z,101770.00
2023-05-22T09:45:09.786Z,101767.00
2023-05-22T09:47:14.938Z,101769.38
2023-05-22T09:49:22.632Z,101772.69
2023-05-22T09:51:32.153Z,101771.72
2023-05-22T09:53:38.141Z,101770.06
2023-05-22T09:55:43.927Z,101761.56
2023-05-22T09:57:50.931Z,101761.34
2023-05-22T09:59:58.652Z,101763.66
2023-05-22T10:02:05.036Z,101757.06
2023-05-22T10:04:15.469Z,101756.34
2023-05-22T10:06:23.473Z,101760.66
2023-05-22T10:08:39.691Z,101762.00
2023-05-22T10:10:48.588Z,101757.56
2023-05-22T10:13:00.803Z,101765.72
2023-05-22T10:15:07.697Z,101766.63
2023-05-22T10:17:13.400Z,101762.28
2023-05-22T10:19:19.404Z,101764.75
2023-05-22T10:21:26.073Z,101773.69
2023-05-22T10:23:34.443Z,101766.03
2023-05-22T10:25:41.650Z,101762.81
2023-05-22T10:27:49.817Z,101761.94
2023-05-22T10:29:59.518Z,101761.38
2023-05-22T10:32:12.420Z,101767.59
2023-05-22T10:34:24.523Z,101767.69
2023-05-22T10:36:44.316Z,101763.84
2023-05-22T10:39:13.865Z,101768.09
2023-05-22T10:41:23.259Z,101760.44
2023-05-22T10:43:32.970Z,101761.53
2023-05-22T10:45:39.844Z,101758.53
2023-05-22T10:47:48.580Z,101760.66
2023-05-22T10:50:06.779Z,101763.41
2023-05-22T10:52:13.218Z,101760.53
2023-05-22T10:54:40.001Z,101762.66
2023-05-22T10:56:45.727Z,101761.50
2023-05-22T10:59:02.959Z,101758.97
2023-05-22T11:01:21.254Z,101757.19
2023-05-22T11:03:26.482Z,101757.19
2023-05-22T11:05:40.078Z,101752.97
2023-05-22T11:07:45.167Z,101747.44
2023-05-22T11:09:56.188Z,101754.13
2023-05-22T11:12:20.737Z,101752.56
2023-05-22T11:14:29.292Z,101742.53
2023-05-22T11:16:41.896Z,101747.94
2023-05-22T11:18:47.322Z,101749.94
2023-05-22T11:20:52.679Z,101755.59
2023-05-22T11:23:01.152Z,101747.88
2023-05-22T11:25:13.996Z,101743.53
2023-05-22T11:27:21.985Z,101734.59
2023-05-22T11:29:27.600Z,101739.81
2023-05-22T11:31:33.241Z,101740.53
2023-05-22T11:33:38.394Z,101739.09
2023-05-22T11:35:46.227Z,101742.94
2023-05-22T11:37:53.408Z,101746.91
2023-05-22T11:40:01.251Z,101746.06
2023-05-22T11:42:11.622Z,101743.66
2023-05-22T11:44:17.625Z,101745.03
2023-05-22T11:46:23.230Z,101750.56
2023-05-22T11:48:28.496Z,101752.81
2023-05-22T11:50:42.503Z,101750.44
2023-05-22T11:52:49.626Z,101750.25
2023-05-22T11:54:57.331Z,101744.22
2023-05-22T11:57:02.441Z,101743.88
2023-05-22T11:59:10.222Z,101750.84
2023-05-22T12:01:15.172Z,101756.00
2023-05-22T12:03:20.929Z,101759.09
2023-05-22T12:05:28.729Z,101758.53
2023-05-22T12:07:34.709Z,101761.38
2023-05-22T12:09:48.204Z,101758.56
2023-05-22T12:12:00.746Z,101767.09
2023-05-22T12:14:06.599Z,101766.16
2023-05-22T12:16:29.031Z,101771.69
2023-05-22T12:18:39.314Z,101768.78
2023-05-22T12:20:46.852Z,101764.47
2023-05-22T12:22:52.401Z,101770.84
2023-05-22T12:24:57.545Z,101765.59
2023-05-22T12:27:02.469Z,101772.25
2023-05-22T12:29:07.642Z,101762.25
2023-05-22T12:31:12.571Z,101777.47
2023-05-22T12:33:20.772Z,101772.31
2023-05-22T12:35:26.573Z,101778.31
2023-05-22T12:37:32.192Z,101781.59
2023-05-22T12:39:38.040Z,101779.28
2023-05-22T12:41:43.087Z,101777.88
2023-05-22T12:43:48.643Z,101782.19
2023-05-22T12:45:58.297Z,101785.63
2023-05-22T12:48:04.755Z,101780.53
2023-05-22T12:50:12.818Z,101790.06
2023-05-22T12:52:21.116Z,101781.63
2023-05-22T12:54:26.269Z,101784.31
2023-05-22T12:56:31.926Z,101785.97
2023-05-22T12:58:37.024Z,101794.03
2023-05-22T13:00:42.336Z,101781.81
2023-05-22T13:02:48.231Z,101793.69
2023-05-22T13:04:55.279Z,101791.59
2023-05-22T13:07:03.277Z,101800.47
2023-05-22T13:09:08.354Z,101799.88
2023-05-22T13:11:14.938Z,101791.75
2023-05-22T13:13:19.837Z,101797.91
2023-05-22T13:15:24.734Z,101796.81
2023-05-22T13:17:30.628Z,101795.59
2023-05-22T13:19:35.843Z,101799.28
2023-05-22T13:21:43.544Z,101799.41
2023-05-22T13:23:51.939Z,101802.72
2023-05-22T13:25:57.180Z,101799.00
2023-05-22T13:28:03.080Z,101794.38
2023-05-22T13:30:09.649Z,101793.16
2023-05-22T13:32:17.001Z,101790.47
2023-05-22T13:34:22.638Z,101793.63
2023-05-22T13:36:27.884Z,101791.72
2023-05-22T13:38:33.218Z,101789.38
2023-05-22T13:40:43.263Z,101791.81
2023-05-22T13:42:48.635Z,101783.66
2023-05-22T13:44:56.490Z,101791.41
2023-05-22T13:47:01.533Z,101788.63
2023-05-22T13:49:06.764Z,101793.66
2023-05-22T13:51:12.095Z,101796.47
2023-05-22T13:53:32.415Z,101801.09
2023-05-22T13:55:40.664Z,101802.56
2023-05-22T13:57:48.626Z,101810.56
2023-05-22T13:59:56.291Z,101813.09
2023-05-22T14:02:01.390Z,101813.00
2023-05-22T14:04:06.655Z,101804.13
2023-05-22T14:06:11.917Z,101812.47
2023-05-22T14:08:17.559Z,101807.41
2023-05-22T14:10:23.410Z,101817.16
2023-05-22T14:12:28.852Z,101803.56
2023-05-22T14:14:36.943Z,101817.41
2023-05-22T14:16:42.343Z,101811.31
2023-05-22T14:18:47.972Z,101806.72
2023-05-22T14:20:58.507Z,101813.13
2023-05-22T14:23:03.610Z,101810.72
2023-05-22T14:25:09.689Z,101811.19
2023-05-22T14:27:14.702Z,101813.72
2023-05-22T14:29:19.817Z,101815.31
2023-05-22T14:31:29.967Z,101809.47
2023-05-22T14:33:36.073Z,101808.25
2023-05-22T14:35:41.418Z,101810.56
2023-05-22T14:37:47.967Z,101813.97
2023-05-22T14:39:52.933Z,101805.41
2023-05-22T14:42:07.156Z,101805.59
2023-05-22T14:44:12.379Z,101806.72
2023-05-22T14:46:17.834Z,101816.66
2023-05-22T14:48:26.952Z,101806.25
2023-05-22T14:50:32.141Z,101808.94
2023-05-22T14:52:40.313Z,101808.53
2023-05-22T14:54:45.750Z,101811.53
2023-05-22T14:56:51.483Z,101818.47
2023-05-22T14:58:56.581Z,101808.09
2023-05-22T15:01:01.661Z,101815.50
2023-05-22T15:03:07.181Z,101805.38
2023-05-22T15:05:15.209Z,101816.56
2023-05-22T15:07:24.367Z,101810.88
2023-05-22T15:09:32.709Z,101813.31
2023-05-22T15:11:41.228Z,101810.78
2023-05-22T15:13:46.840Z,101815.44
2023-05-22T15:15:53.932Z,101822.09
2023-05-22T15:18:02.842Z,101833.13
2023-05-22T15:20:09.635Z,101841.06
2023-05-22T15:22:19.790Z,101825.81
2023-05-22T15:24:25.279Z,101838.84
2023-05-22T15:26:33.216Z,101845.25
2023-05-22T15:28:38.178Z,101838.66
2023-05-22T15:30:43.938Z,101849.94
2023-05-22T15:32:52.092Z,101837.19
2023-05-22T15:34:57.114Z,101847.25
2023-05-22T15:37:02.231Z,101842.50
2023-05-22T15:39:09.891Z,101843.38
2023-05-22T15:41:14.938Z,101847.84
2023-05-22T15:43:22.716Z,101846.28
2023-05-22T15:45:28.860Z,101847.22
2023-05-22T15:47:34.075Z,101850.22
2023-05-22T15:49:40.751Z,101849.31
2023-05-22T15:51:46.019Z,101854.25
2023-05-22T15:53:51.978Z,101851.34
2023-05-22T15:55:59.593Z,101856.53
2023-05-22T15:58:08.022Z,101852.78
2023-05-22T16:00:15.237Z,101853.50
2023-05-22T16:02:23.793Z,101849.78
2023-05-22T16:04:28.974Z,101853.44
2023-05-22T16:06:33.924Z,101849.78
2023-05-22T16:08:39.083Z,101859.44
2023-05-22T16:10:47.211Z,101857.03
2023-05-22T16:15:03.275Z,101865.72
2023-05-22T16:17:09.643Z,101857.91
2023-05-22T16:19:14.873Z,101866.34
2023-05-22T16:21:19.872Z,101854.38
2023-05-22T16:23:25.098Z,101861.75
2023-05-22T16:25:33.012Z,101865.59
2023-05-22T16:27:38.136Z,101867.91
2023-05-22T16:29:45.792Z,101869.56
2023-05-22T16:31:52.346Z,101878.28
2023-05-22T16:33:57.734Z,101872.88
2023-05-22T16:36:02.777Z,101877.22
2023-05-22T16:38:11.951Z,101879.44
2023-05-22T16:40:22.503Z,101894.66
2023-05-22T16:42:27.733Z,101897.91
2023-05-22T16:44:34.879Z,101895.81
2023-05-22T16:46:42.414Z,101904.28
2023-05-22T16:48:49.787Z,101906.34
2023-05-22T16:50:54.939Z,101902.41
2023-05-22T16:53:02.456Z,101906.13
2023-05-22T16:55:08.434Z,101906.72
2023-05-22T16:57:13.385Z,101905.44
2023-05-22T16:59:19.750Z,101911.03
2023-05-22T17:01:25.121Z,101906.97
2023-05-22T17:03:34.491Z,101917.09
2023-05-22T17:05:40.255Z,101914.16
2023-05-22T17:07:45.786Z,101906.03
2023-05-22T17:09:51.850Z,101912.19
2023-05-22T17:11:57.110Z,101918.06
2023-05-22T17:14:02.237Z,101914.69
2023-05-22T17:16:10.264Z,101910.56
2023-05-22T17:18:18.119Z,101897.00
2023-05-22T17:20:26.973Z,101913.56
2023-05-22T17:22:32.254Z,101902.31
2023-05-22T17:24:37.321Z,101912.63
2023-05-22T17:26:42.936Z,101912.44
2023-05-22T17:28:48.773Z,101908.69
2023-05-22T17:30:58.976Z,101922.44
2023-05-22T17:33:10.320Z,101920.63
2023-05-22T17:35:16.110Z,101919.38
2023-05-22T17:37:26.491Z,101916.50
2023-05-22T17:39:32.012Z,101919.94
2023-05-22T17:41:37.758Z,101918.91
2023-05-22T17:43:42.756Z,101916.34
2023-05-22T17:45:50.996Z,101925.00
2023-05-22T17:50:49.841Z,101934.66
2023-05-22T17:52:59.644Z,101929.19
2023-05-22T17:55:04.729Z,101931.81
2023-05-22T17:57:12.467Z,101933.34
2023-05-22T17:59:19.755Z,101946.53
2023-05-22T18:01:24.720Z,101948.75
2023-05-22T18:03:30.339Z,101951.03
2023-05-22T18:05:35.984Z,101953.78
2023-05-22T18:07:41.443Z,101964.66
2023-05-22T18:09:52.194Z,101961.50
2023-05-22T18:12:02.656Z,101966.66
2023-05-22T18:14:07.799Z,101961.31
2023-05-22T18:16:13.081Z,101959.28
2023-05-22T18:18:20.745Z,101956.19
2023-05-22T18:20:26.021Z,101953.75
2023-05-22T18:22:31.519Z,101954.81
2023-05-22T18:24:36.843Z,101969.31
2023-05-22T18:26:44.559Z,101967.28
2023-05-22T18:28:51.890Z,101965.44
2023-05-22T18:30:58.429Z,101965.03
2023-05-22T18:33:04.044Z,101973.72
2023-05-22T18:35:09.700Z,101965.03
2023-05-22T18:37:14.735Z,101971.75
2023-05-22T18:39:22.372Z,101969.81
2023-05-22T18:41:27.561Z,101974.34
2023-05-22T18:43:35.417Z,101981.16
2023-05-22T18:45:43.494Z,101981.19
2023-05-22T18:47:48.774Z,101970.94
2023-05-22T18:49:56.524Z,101967.09
2023-05-22T18:52:02.055Z,101966.31
2023-05-22T18:54:07.155Z,101971.25
2023-05-22T18:56:12.105Z,101970.84
2023-05-22T18:58:21.350Z,101965.03
2023-05-22T19:00:29.055Z,101972.50
2023-05-22T19:02:34.188Z,101976.09
2023-05-22T19:04:39.432Z,101979.72
2023-05-22T19:06:44.517Z,101975.75
2023-05-22T19:08:52.430Z,101974.34
2023-05-22T19:11:02.170Z,101973.28
2023-05-22T19:13:07.215Z,101967.28
2023-05-22T19:15:17.295Z,101988.91
2023-05-22T19:17:27.612Z,101984.59
2023-05-22T19:19:36.945Z,101983.16
2023-05-22T19:21:45.484Z,101990.56
2023-05-22T19:23:51.637Z,101990.78
2023-05-22T19:26:01.430Z,101996.00
2023-05-22T19:28:07.470Z,102001.75
2023-05-22T19:30:15.361Z,102006.41
2023-05-22T19:32:22.202Z,102016.66
2023-05-22T19:34:31.120Z,102028.59
2023-05-22T19:36:40.684Z,102037.25
2023-05-22T19:38:56.352Z,102036.16
2023-05-22T19:41:16.245Z,102041.31
2023-05-22T19:43:23.934Z,102045.34
2023-05-22T19:45:29.277Z,102048.69
2023-05-22T19:47:34.453Z,102051.50
2023-05-22T19:49:42.697Z,102066.38
2023-05-22T19:51:51.010Z,102065.38
2023-05-22T19:53:56.248Z,102068.47
2023-05-22T19:56:02.306Z,102079.31
2023-05-22T19:58:07.842Z,102093.06
2023-05-22T20:00:14.205Z,102093.47
2023-05-22T20:02:19.361Z,102093.81
2023-05-22T20:04:24.472Z,102109.19
2023-05-22T20:06:33.884Z,102109.53
2023-05-22T20:08:39.462Z,102104.72
2023-05-22T20:10:44.974Z,102111.81
2023-05-22T20:12:50.188Z,102116.06
2023-05-22T20:14:57.279Z,102119.50
2023-05-22T20:17:03.276Z,102110.34
2023-05-22T20:19:09.460Z,102115.63
2023-05-22T20:21:17.147Z,102121.66
2023-05-22T20:23:25.301Z,102126.97
2023-05-22T20:25:30.697Z,102128.94
2023-05-22T20:27:36.111Z,102126.19
2023-05-22T20:29:41.508Z,102127.25
2023-05-22T20:31:52.000Z,102134.25
2023-05-22T20:33:59.397Z,102131.56
2023-05-22T20:36:04.733Z,102140.31
2023-05-22T20:38:14.594Z,102142.16
2023-05-22T20:40:29.955Z,102147.31
2023-05-22T20:42:36.784Z,102147.53
2023-05-22T20:44:42.369Z,102152.00
2023-05-22T20:46:47.656Z,102158.09
2023-05-22T20:48:58.079Z,102165.03
2023-05-22T20:51:03.049Z,102174.63
2023-05-22T20:53:08.666Z,102178.88
2023-05-22T20:55:13.644Z,102178.88
2023-05-22T20:57:24.753Z,102179.72
2023-05-22T20:59:39.728Z,102179.78
2023-05-22T21:01:46.139Z,102180.41
2023-05-22T21:03:56.888Z,102187.34
2023-05-22T21:06:05.116Z,102187.56
2023-05-22T21:08:20.466Z,102190.91
2023-05-22T21:10:28.362Z,102187.06
2023-05-22T21:12:40.887Z,102190.56
2023-05-22T21:14:55.171Z,102181.56
2023-05-22T21:17:08.775Z,102184.16
2023-05-22T21:19:17.735Z,102170.25
2023-05-22T21:21:41.993Z,102186.78
2023-05-22T21:23:48.900Z,102183.28
2023-05-22T21:26:03.222Z,102187.44
2023-05-22T21:28:12.851Z,102184.59
2023-05-22T21:30:25.875Z,102175.81
2023-05-22T21:32:36.405Z,102180.91
2023-05-22T21:34:45.636Z,102187.03
2023-05-22T21:36:52.742Z,102184.34
2023-05-22T21:39:00.520Z,102189.56
2023-05-22T21:41:05.653Z,102187.88
2023-05-22T21:43:13.986Z,102181.75
2023-05-22T21:45:19.736Z,102187.81
2023-05-22T21:47:31.914Z,102171.63
2023-05-22T21:49:39.464Z,102196.47
2023-05-22T21:51:44.792Z,102191.56
2023-05-22T21:53:50.327Z,102196.50
2023-05-22T21:55:57.397Z,102189.56
2023-05-22T21:58:02.382Z,102190.59
2023-05-22T22:00:11.606Z,102191.41
2023-05-22T22:02:17.596Z,102188.91
2023-05-22T22:04:25.872Z,102185.53
2023-05-22T22:06:31.260Z,102177.75
2023-05-22T22:08:37.739Z,102183.06
2023-05-22T22:10:45.795Z,102204.06
2023-05-22T22:12:52.243Z,102201.41
2023-05-22T22:14:57.413Z,102191.47
2023-05-22T22:17:06.064Z,102205.53
2023-05-22T22:19:11.870Z,102206.72
2023-05-22T22:21:18.152Z,102184.31
2023-05-22T22:23:24.596Z,102198.81
2023-05-22T22:25:34.388Z,102205.28
2023-05-22T22:27:39.960Z,102207.47
2023-05-22T22:29:45.507Z,102210.13
2023-05-22T22:31:57.133Z,102217.56
2023-05-22T22:34:11.666Z,102212.28
2023-05-22T22:36:18.145Z,102217.84
2023-05-22T22:38:24.723Z,102215.34
2023-05-22T22:40:32.906Z,102215.59
2023-05-22T22:42:38.651Z,102209.59
2023-05-22T22:44:44.389Z,102218.91
2023-05-22T22:46:50.890Z,102224.09
2023-05-22T22:49:05.651Z,102211.09
2023-05-22T22:51:10.886Z,102220.13
2023-05-22T22:53:17.528Z,102212.72
2023-05-22T22:55:28.192Z,102226.75
2023-05-22T22:57:33.647Z,102226.78
2023-05-22T22:59:40.606Z,102226.75
2023-05-22T23:01:46.133Z,102230.34
2023-05-22T23:03:52.706Z,102221.09
2023-05-22T23:06:00.876Z,102237.25
2023-05-22T23:08:05.925Z,102229.31
2023-05-22T23:10:14.681Z,102233.56
2023-05-22T23:12:21.782Z,102236.16
2023-05-22T23:14:30.484Z,102236.34
2023-05-22T23:16:38.156Z,102231.16
2023-05-22T23:18:43.557Z,102233.19
2023-05-22T23:20:49.486Z,102243.78
2023-05-22T23:22:57.432Z,102245.69
2023-05-22T23:25:02.527Z,102251.50
2023-05-22T23:27:07.971Z,102254.88
2023-05-22T23:29:13.499Z,102249.81
2023-05-22T23:31:19.184Z,102250.06
2023-05-22T23:33:24.593Z,102251.69
2023-05-22T23:35:35.467Z,102244.78
2023-05-22T23:37:42.170Z,102252.53
2023-05-22T23:39:51.183Z,102249.13
2023-05-22T23:41:56.707Z,102242.97
2023-05-22T23:44:02.237Z,102248.31
2023-05-22T23:46:07.852Z,102250.88
2023-05-22T23:48:12.828Z,102243.03
2023-05-22T23:50:20.823Z,102254.34
2023-05-22T23:52:34.853Z,102247.34
2023-05-22T23:54:39.953Z,102240.31
2023-05-22T23:56:51.177Z,102244.72
2023-05-22T23:58:56.265Z,102251.63
